createdAt,value
2024-03-15T00:02:17.541Z,13.60
2024-03-15T00:07:22.061Z,13.60
2024-03-15T00:12:25.186Z,13.50
2024-03-15T00:17:29.336Z,13.50
2024-03-15T00:22:33.830Z,13.50
2024-03-15T00:27:37.403Z,13.50
2024-03-15T00:32:40.729Z,13.40
2024-03-15T00:37:44.971Z,13.50
2024-03-15T00:42:48.211Z,13.40
2024-03-15T00:47:52.958Z,13.40
2024-03-15T00:52:58.465Z,13.40
2024-03-15T00:58:01.873Z,13.40
2024-03-15T01:03:05.255Z,13.40
2024-03-15T01:08:08.799Z,13.30
2024-03-15T01:13:11.836Z,13.30
2024-03-15T01:18:18.645Z,13.30
2024-03-15T01:23:21.987Z,13.30
2024-03-15T01:28:24.990Z,13.40
2024-03-15T01:33:28.036Z,13.40
2024-03-15T01:38:33.003Z,13.40
2024-03-15T01:43:36.049Z,13.40
2024-03-15T01:48:39.107Z,13.40
2024-03-15T01:53:43.835Z,13.40
2024-03-15T01:58:47.076Z,13.50
2024-03-15T02:03:50.212Z,13.40
2024-03-15T02:08:55.996Z,13.40
2024-03-15T02:13:59.045Z,13.40
2024-03-15T02:19:02.124Z,13.30
2024-03-15T02:24:06.629Z,13.40
2024-03-15T02:29:09.706Z,13.40
2024-03-15T02:34:12.868Z,13.40
2024-03-15T02:39:17.574Z,13.40
2024-03-15T02:44:20.957Z,13.30
2024-03-15T02:49:24.019Z,13.30
2024-03-15T02:54:27.910Z,13.30
2024-03-15T02:59:33.224Z,13.30
2024-03-15T03:04:36.737Z,13.30
2024-03-15T03:09:39.762Z,13.30
2024-03-15T03:14:43.371Z,13.30
2024-03-15T03:19:46.394Z,13.30
2024-03-15T03:24:49.811Z,13.30
2024-03-15T03:29:52.901Z,13.30
2024-03-15T03:34:55.874Z,13.30
2024-03-15T03:39:58.898Z,13.30
2024-03-15T03:45:02.114Z,13.40
2024-03-15T03:50:05.436Z,13.40
2024-03-15T03:55:08.804Z,13.40
2024-03-15T04:00:14.813Z,13.40
2024-03-15T04:05:19.304Z,13.40
2024-03-15T04:10:22.475Z,13.40
2024-03-15T04:15:30.108Z,13.40
2024-03-15T04:20:34.291Z,13.40
2024-03-15T04:25:37.373Z,13.40
2024-03-15T04:30:41.448Z,13.40
2024-03-15T04:35:44.542Z,13.40
2024-03-15T04:40:47.559Z,13.40
2024-03-15T04:45:50.743Z,13.40
2024-03-15T04:50:53.846Z,13.40
2024-03-15T04:55:56.910Z,13.40
2024-03-15T05:00:59.991Z,13.40
2024-03-15T05:06:09.983Z,13.40
2024-03-15T05:11:16.756Z,13.40
2024-03-15T05:16:19.866Z,13.30
2024-03-15T05:21:23.024Z,13.30
2024-03-15T05:26:26.198Z,13.30
2024-03-15T05:31:30.510Z,13.30
2024-03-15T05:36:33.561Z,13.30
2024-03-15T05:41:36.626Z,13.30
2024-03-15T05:46:39.651Z,13.30
2024-03-15T05:51:43.608Z,13.30
2024-03-15T05:56:46.844Z,13.30
2024-03-15T06:01:49.954Z,13.30
2024-03-15T06:06:53.357Z,13.30
2024-03-15T06:11:56.668Z,13.40
2024-03-15T06:17:00.380Z,13.30
2024-03-15T06:22:03.493Z,13.30
2024-03-15T06:27:14.386Z,13.20
2024-03-15T06:32:18.880Z,13.20
2024-03-15T06:37:23.631Z,13.20
2024-03-15T06:42:36.374Z,13.20
2024-03-15T06:47:39.963Z,13.20
2024-03-15T06:52:43.365Z,13.20
2024-03-15T06:57:49.812Z,13.20
2024-03-15T07:02:53.113Z,13.20
2024-03-15T07:07:56.144Z,13.20
2024-03-15T07:12:59.584Z,13.20
2024-03-15T07:18:06.516Z,13.30
2024-03-15T07:23:10.141Z,13.30
2024-03-15T07:28:13.476Z,13.40
2024-03-15T07:33:20.220Z,13.40
2024-03-15T07:38:24.747Z,13.40
2024-03-15T07:43:28.556Z,13.40
2024-03-15T07:48:31.847Z,13.50
2024-03-15T07:53:34.972Z,13.50
2024-03-15T07:58:38.333Z,13.60
2024-03-15T08:03:42.766Z,13.60
2024-03-15T08:08:46.716Z,13.70
2024-03-15T08:13:49.837Z,13.90
2024-03-15T08:18:53.734Z,13.90
2024-03-15T08:23:57.173Z,13.90
2024-03-15T08:29:01.372Z,13.90
2024-03-15T08:34:05.589Z,13.90
2024-03-15T08:39:13.208Z,14.00
2024-03-15T08:44:19.740Z,14.00
2024-03-15T08:49:25.352Z,14.10
2024-03-15T08:54:28.891Z,14.20
2024-03-15T08:59:32.174Z,14.20
2024-03-15T09:04:36.618Z,14.20
2024-03-15T09:09:41.506Z,14.30
2024-03-15T09:14:47.469Z,14.30
2024-03-15T09:19:54.560Z,14.30
2024-03-15T09:24:57.916Z,14.30
2024-03-15T09:30:17.347Z,14.30
2024-03-15T09:35:20.729Z,14.20
2024-03-15T09:40:24.939Z,14.30
2024-03-15T09:45:28.422Z,14.30
2024-03-15T09:50:32.306Z,14.20
2024-03-15T09:55:35.559Z,14.20
2024-03-15T10:00:39.762Z,14.20
2024-03-15T10:05:43.798Z,14.50
2024-03-15T10:10:48.303Z,15.00
2024-03-15T10:15:51.571Z,14.90
2024-03-15T10:20:56.155Z,15.10
2024-03-15T10:25:59.407Z,15.20
2024-03-15T10:31:02.715Z,15.10
2024-03-15T10:36:09.964Z,15.10
2024-03-15T10:41:15.262Z,15.00
2024-03-15T10:46:18.667Z,14.90
2024-03-15T10:51:22.003Z,15.00
2024-03-15T10:56:25.058Z,15.10
2024-03-15T11:01:28.246Z,15.00
2024-03-15T11:06:42.160Z,15.00
2024-03-15T11:11:45.383Z,15.10
2024-03-15T11:16:56.582Z,15.10
2024-03-15T11:22:06.242Z,15.10
2024-03-15T11:27:14.864Z,15.10
2024-03-15T11:32:18.129Z,15.10
2024-03-15T11:37:24.559Z,15.20
2024-03-15T11:42:27.863Z,15.20
2024-03-15T11:47:32.105Z,15.30
2024-03-15T11:52:36.918Z,15.50
2024-03-15T11:57:41.004Z,15.60
2024-03-15T12:02:44.187Z,15.60
2024-03-15T12:07:47.393Z,15.80
2024-03-15T12:12:50.969Z,15.80
2024-03-15T12:17:57.466Z,15.70
2024-03-15T12:23:01.534Z,15.70
2024-03-15T12:28:06.330Z,15.70
2024-03-15T12:33:13.081Z,15.70
2024-03-15T12:38:19.735Z,15.90
2024-03-15T12:43:24.357Z,16.20
2024-03-15T12:48:29.970Z,16.20
2024-03-15T12:53:33.686Z,16.50
2024-03-15T12:58:37.126Z,16.60
2024-03-15T13:03:40.527Z,16.50
2024-03-15T13:08:43.944Z,16.40
2024-03-15T13:13:48.463Z,16.50
2024-03-15T13:18:51.862Z,16.50
2024-03-15T13:23:55.101Z,16.90
2024-03-15T13:28:59.502Z,16.80
2024-03-15T13:34:05.973Z,16.60
2024-03-15T13:39:21.497Z,16.50
2024-03-15T13:44:26.866Z,16.40
2024-03-15T13:49:30.384Z,16.40
2024-03-15T13:54:34.591Z,16.30
2024-03-15T13:59:37.891Z,16.30
2024-03-15T14:04:44.567Z,16.10
2024-03-15T14:09:48.235Z,15.90
2024-03-15T14:14:52.654Z,15.80
2024-03-15T14:20:05.744Z,16.00
2024-03-15T14:25:09.435Z,16.00
2024-03-15T14:30:13.217Z,16.10
2024-03-15T14:35:17.518Z,16.20
2024-03-15T14:40:22.137Z,16.40
2024-03-15T14:45:28.415Z,16.50
2024-03-15T14:50:32.620Z,16.40
2024-03-15T14:55:36.400Z,16.20
2024-03-15T15:00:39.865Z,16.10
2024-03-15T15:05:43.289Z,15.50
2024-03-15T15:10:46.850Z,14.90
2024-03-15T15:15:52.604Z,14.60
2024-03-15T15:20:56.310Z,14.10
2024-03-15T15:26:00.888Z,13.50
2024-03-15T15:31:06.630Z,13.30
2024-03-15T15:36:10.049Z,13.20
2024-03-15T15:41:14.423Z,13.10
2024-03-15T15:46:20.677Z,13.20
2024-03-15T15:51:29.192Z,13.20
2024-03-15T15:56:33.005Z,13.30
2024-03-15T16:01:38.248Z,13.30
2024-03-15T16:06:41.784Z,13.20
2024-03-15T16:11:45.222Z,13.20
2024-03-15T16:16:49.896Z,13.20
2024-03-15T16:21:53.173Z,13.20
2024-03-15T16:26:56.698Z,13.10
2024-03-15T16:32:03.414Z,13.00
2024-03-15T16:37:06.916Z,13.00
2024-03-15T16:42:10.585Z,12.90
2024-03-15T16:47:16.910Z,12.80
2024-03-15T16:52:22.838Z,12.80
2024-03-15T16:57:27.525Z,12.80
2024-03-15T17:02:31.139Z,12.80
2024-03-15T17:07:34.650Z,12.80
2024-03-15T17:12:39.030Z,12.60
2024-03-15T17:17:44.351Z,12.60
2024-03-15T17:22:47.585Z,12.60
2024-03-15T17:27:52.263Z,12.60
2024-03-15T17:32:55.913Z,12.60
2024-03-15T17:37:59.083Z,12.50
2024-03-15T17:43:02.398Z,12.50
2024-03-15T17:48:06.158Z,12.50
2024-03-15T17:53:09.522Z,12.50
2024-03-15T17:58:12.966Z,12.50
2024-03-15T18:03:16.333Z,12.40
2024-03-15T18:08:19.709Z,12.40
2024-03-15T18:13:23.331Z,12.40
2024-03-15T18:18:26.663Z,12.40
2024-03-15T18:23:31.746Z,12.40
2024-03-15T18:28:34.980Z,12.30
2024-03-15T18:33:38.117Z,12.30
2024-03-15T18:38:41.406Z,12.30
2024-03-15T18:43:44.563Z,12.30
2024-03-15T18:48:53.058Z,12.30
2024-03-15T18:53:56.232Z,12.20
2024-03-15T18:59:13.397Z,12.20
2024-03-15T19:04:16.758Z,12.20
2024-03-15T19:09:21.273Z,12.10
2024-03-15T19:14:25.596Z,12.10
2024-03-15T19:19:28.783Z,12.10
2024-03-15T19:24:35.047Z,12.10
2024-03-15T19:29:39.072Z,12.00
2024-03-15T19:34:42.203Z,12.00
2024-03-15T19:39:46.587Z,12.00
2024-03-15T19:44:49.804Z,11.90
2024-03-15T19:49:53.039Z,11.90
2024-03-15T19:54:56.270Z,11.80
2024-03-15T19:59:59.546Z,11.80
2024-03-15T20:05:02.795Z,11.80
2024-03-15T20:10:08.570Z,11.70
2024-03-15T20:15:11.572Z,11.70
2024-03-15T20:20:15.903Z,11.70
2024-03-15T20:25:18.962Z,11.60
2024-03-15T20:30:22.409Z,11.60
2024-03-15T20:35:27.299Z,11.60
2024-03-15T20:40:30.948Z,11.50
2024-03-15T20:45:34.287Z,11.50
2024-03-15T20:50:37.643Z,11.40
2024-03-15T20:55:42.581Z,11.50
2024-03-15T21:00:45.716Z,11.50
2024-03-15T21:05:48.889Z,11.50
2024-03-15T21:10:52.468Z,11.40
2024-03-15T21:15:56.314Z,11.40
2024-03-15T21:20:59.591Z,11.40
2024-03-15T21:26:02.663Z,11.40
2024-03-15T21:31:05.945Z,11.40
2024-03-15T21:36:10.005Z,11.40
2024-03-15T21:41:13.648Z,11.40
2024-03-15T21:46:22.874Z,11.40
2024-03-15T21:51:26.865Z,11.40
2024-03-15T21:56:30.087Z,11.40
2024-03-15T22:01:36.044Z,11.40
2024-03-15T22:06:42.463Z,11.50
2024-03-15T22:11:45.578Z,11.50
2024-03-15T22:16:48.798Z,11.50
2024-03-15T22:21:51.851Z,11.50
2024-03-15T22:26:54.984Z,11.60
2024-03-15T22:31:58.303Z,11.60
2024-03-15T22:37:02.436Z,11.60
2024-03-15T22:42:05.763Z,11.60
2024-03-15T22:47:08.831Z,11.60
2024-03-15T22:52:11.878Z,11.60
2024-03-15T22:57:16.507Z,11.60
2024-03-15T23:02:19.857Z,11.60
2024-03-15T23:07:23.724Z,11.60
2024-03-15T23:12:27.093Z,11.50
2024-03-15T23:17:30.294Z,11.60
2024-03-15T23:22:33.373Z,11.50
2024-03-15T23:27:36.649Z,11.50
2024-03-15T23:32:40.287Z,11.40
2024-03-15T23:37:43.462Z,11.40
2024-03-15T23:42:47.696Z,11.40
2024-03-15T23:47:51.224Z,11.40
2024-03-15T23:52:57.229Z,11.40
2024-03-15T23:58:03.111Z,11.30
